Time;durP1;ratioP1;P1;durP2;ratioP2;P2;SDS_P1;SDS_P2;PMS_P1;PMS_P2;Temp;Humidity;BMP_temperature;BMP_pressure;BME280_temperature;BME280_humidity;BME280_pressure;Samples;Min_cycle;Max_cycle;Signal;HPM_P1;HPM_P2
2022/06/20 00:01:18;;;;;;;12.60;4.10;;;21.00;99.90;;;20.50;100.00;96840.34;5044761;28;20523;-70
2022/06/20 00:03:48;;;;;;;8.02;3.15;;;21.00;99.90;;;20.48;100.00;96828.16;5042457;28;20504;-70
2022/06/20 00:06:22;;;;;;;12.27;4.10;;;21.00;99.90;;;20.68;100.00;96828.06;5042328;28;20045;-70
2022/06/20 00:08:51;;;;;;;10.52;3.08;;;21.00;99.90;;;20.85;100.00;96819.38;5043834;28;20131;-70
2022/06/20 00:11:36;;;;;;;5.72;2.75;;;21.10;99.90;;;20.91;100.00;96804.75;5040111;28;20056;-70
2022/06/20 00:14:04;;;;;;;11.45;3.40;;;21.00;99.90;;;20.60;100.00;96802.44;5045405;28;20076;-70
2022/06/20 00:16:34;;;;;;;9.27;3.35;;;20.90;99.90;;;20.79;100.00;96800.66;5041606;28;20080;-69
2022/06/20 00:19:02;;;;;;;10.90;3.22;;;20.80;99.90;;;20.44;100.00;96797.78;5034359;28;20140;-70
2022/06/20 00:21:29;;;;;;;8.55;3.50;;;20.80;99.90;;;20.50;100.00;96803.44;5046710;28;20068;-69
2022/06/20 00:23:56;;;;;;;12.05;3.35;;;20.70;99.90;;;20.38;100.00;96802.78;5042647;28;20088;-69
2022/06/20 00:26:24;;;;;;;12.93;4.20;;;20.70;99.90;;;20.27;100.00;96796.75;5045333;28;20037;-69
2022/06/20 00:28:51;;;;;;;13.93;3.97;;;20.60;99.90;;;20.08;100.00;96790.72;5050970;28;20163;-70
2022/06/20 00:31:18;;;;;;;14.80;4.00;;;20.60;99.90;;;20.13;100.00;96797.19;5051372;28;20133;-70
2022/06/20 00:33:46;;;;;;;12.82;3.85;;;20.50;99.90;;;20.16;100.00;96791.66;5043746;28;20557;-70
2022/06/20 00:36:14;;;;;;;11.60;3.83;;;20.50;99.90;;;19.98;100.00;96790.72;5046450;28;20041;-70
2022/06/20 00:38:42;;;;;;;12.02;4.05;;;20.40;99.90;;;19.82;100.00;96804.50;5046388;28;20084;-70
2022/06/20 00:41:17;;;;;;;9.45;3.78;;;20.40;99.90;;;20.00;100.00;96808.06;5048308;28;20547;-70
2022/06/20 00:43:47;;;;;;;10.90;3.55;;;20.30;99.90;;;19.96;100.00;96804.06;5049618;28;20041;-69
2022/06/20 00:46:47;;;;;;;11.20;4.25;;;20.30;99.90;;;19.89;100.00;96791.56;5045527;28;20068;-70
2022/06/20 00:49:21;;;;;;;9.57;3.67;;;20.30;99.90;;;19.41;100.00;96799.41;5049372;28;20120;-69
2022/06/20 00:52:15;;;;;;;13.32;4.22;;;20.20;99.90;;;19.11;100.00;96808.25;5040438;28;20127;-70
2022/06/20 00:54:53;;;;;;;11.73;4.20;;;20.00;99.90;;;19.24;100.00;96797.44;5042085;28;20124;-69
2022/06/20 00:57:28;;;;;;;13.20;4.72;;;19.80;99.90;;;19.16;100.00;96808.69;5046685;28;20065;-69
2022/06/20 01:00:20;;;;;;;9.80;4.05;;;19.70;99.90;;;19.16;100.00;96810.47;5048447;28;20476;-69
2022/06/20 01:02:53;;;;;;;9.55;3.78;;;19.70;99.90;;;19.31;100.00;96808.25;5049742;28;20128;-70
2022/06/20 01:05:32;;;;;;;10.93;3.92;;;19.70;99.90;;;19.50;100.00;96802.16;5046261;28;20514;-69
2022/06/20 01:08:28;;;;;;;11.07;3.67;;;19.80;99.90;;;19.77;100.00;96809.34;5040100;28;20072;-69
2022/06/20 01:11:07;;;;;;;12.80;3.80;;;20.00;99.90;;;19.86;100.00;96813.75;5036338;28;20084;-69
2022/06/20 01:13:34;;;;;;;10.63;4.18;;;20.10;99.90;;;19.69;100.00;96820.59;5049165;28;20588;-70
2022/06/20 01:16:28;;;;;;;9.65;4.47;;;20.20;99.90;;;19.26;100.00;96837.63;5049254;28;20076;-69
2022/06/20 01:19:00;;;;;;;14.18;5.18;;;20.00;99.90;;;18.87;100.00;96881.44;5044829;28;20091;-69
2022/06/20 01:21:33;;;;;;;15.20;4.85;;;19.90;99.90;;;19.05;100.00;96958.72;5061691;28;20037;-70
2022/06/20 01:24:30;;;;;;;13.68;5.40;;;19.80;99.90;;;19.23;100.00;96975.53;5048740;28;20444;-70
2022/06/20 01:27:37;;;;;;;8.50;4.38;;;19.70;99.90;;;19.31;100.00;96934.56;5049105;28;20140;-69
2022/06/20 01:30:05;;;;;;;13.48;4.15;;;19.70;99.90;;;19.19;100.00;96928.59;5050406;28;20804;-69
2022/06/20 01:32:32;;;;;;;14.45;4.38;;;19.70;99.90;;;19.05;100.00;96965.78;5043663;28;20148;-69
2022/06/20 01:35:05;;;;;;;15.57;4.28;;;19.70;99.90;;;19.09;100.00;96994.31;5046273;28;20140;-70
2022/06/20 01:37:38;;;;;;;13.63;4.75;;;19.70;99.90;;;19.11;100.00;96988.91;5030484;28;20124;-70
2022/06/20 01:40:12;;;;;;;13.35;4.72;;;19.60;99.90;;;19.19;100.00;97002.25;5042545;28;20151;-71
2022/06/20 01:42:42;;;;;;;15.00;4.45;;;19.60;99.90;;;19.07;100.00;97000.66;5042074;28;20040;-69
2022/06/20 01:48:13;;;;;;;12.82;4.13;;;19.50;99.90;;;18.93;100.00;96972.91;5047090;28;20053;-70
2022/06/20 01:50:43;;;;;;;16.20;3.33;;;19.50;99.90;;;18.74;100.00;97002.56;5046943;28;20431;-70
2022/06/20 01:53:13;;;;;;;15.43;3.08;;;19.50;99.90;;;18.68;100.00;96989.94;5045674;28;20095;-70
2022/06/20 01:55:43;;;;;;;15.88;3.90;;;19.40;99.90;;;18.53;100.00;96924.56;5046134;28;20156;-70
2022/06/20 01:58:37;;;;;;;11.38;2.85;;;19.20;99.90;;;18.48;100.00;96976.69;5047943;28;20080;-69
2022/06/20 02:01:05;;;;;;;16.55;3.75;;;19.10;99.90;;;18.37;100.00;97005.66;5044965;28;20162;-69
2022/06/20 02:03:38;;;;;;;14.65;3.75;;;19.10;99.90;;;18.20;100.00;96951.91;5047341;28;20517;-70
2022/06/20 02:06:16;;;;;;;13.85;3.03;;;18.80;99.90;;;18.17;100.00;96987.13;5045165;28;20045;-70
2022/06/20 02:08:52;;;;;;;11.90;2.83;;;18.80;99.90;;;18.13;100.00;96988.34;5044746;28;20041;-69
2022/06/20 02:11:29;;;;;;;9.88;2.53;;;18.70;99.90;;;18.07;100.00;96967.03;5047821;28;20220;-69
2022/06/20 02:14:03;;;;;;;13.70;2.47;;;18.60;99.90;;;18.00;100.00;96960.63;5041772;28;20166;-69
2022/06/20 02:16:35;;;;;;;11.32;2.45;;;18.60;99.90;;;18.02;100.00;96958.66;5044754;28;20076;-69
2022/06/20 02:19:07;;;;;;;10.25;2.38;;;18.50;99.90;;;18.12;100.00;96956.97;5043013;28;20052;-70
2022/06/20 02:21:36;;;;;;;11.82;2.97;;;18.60;99.90;;;17.98;100.00;96951.06;5044262;28;20128;-70
2022/06/20 02:24:17;;;;;;;13.77;2.80;;;18.50;99.90;;;18.04;100.00;96954.13;5046337;28;20171;-70
2022/06/20 02:26:50;;;;;;;12.50;2.40;;;18.50;99.90;;;18.02;100.00;96954.28;5048138;28;20088;-69
2022/06/20 02:29:22;;;;;;;;;;;18.50;99.90;;;17.84;100.00;96929.53;5042875;28;20124;-69
2022/06/20 02:31:55;;;;;;;12.68;2.67;;;18.50;99.90;;;17.81;100.00;96916.59;5044455;28;19925;-69
2022/06/20 02:34:26;;;;;;;11.48;3.53;;;18.30;99.90;;;17.75;100.00;96920.59;5043297;28;20057;-69
2022/06/20 02:36:55;;;;;;;13.43;2.88;;;18.30;99.90;;;17.79;100.00;96927.25;5048302;28;20179;-69
2022/06/20 02:39:25;;;;;;;9.77;2.35;;;18.30;99.90;;;17.94;100.00;96907.63;5046833;28;20127;-70
2022/06/20 02:42:02;;;;;;;11.48;2.72;;;18.40;99.90;;;18.00;100.00;96921.22;5044208;28;20106;-70
2022/06/20 02:44:31;;;;;;;8.15;2.50;;;18.40;99.90;;;18.17;100.00;96913.56;5043861;28;20120;-69
2022/06/20 02:47:02;;;;;;;11.77;2.65;;;18.60;99.90;;;18.14;100.00;96903.34;5045908;28;20044;-70
2022/06/20 02:49:31;;;;;;;15.87;3.37;;;18.50;99.90;;;18.04;100.00;96888.47;5045555;28;20048;-69
2022/06/20 02:52:00;;;;;;;12.50;2.50;;;18.50;99.90;;;17.98;100.00;96900.34;5061552;28;20390;-70
2022/06/20 02:54:33;;;;;;;9.10;2.30;;;18.50;99.90;;;18.00;100.00;96887.91;5044732;28;20479;-70
2022/06/20 02:57:19;;;;;;;7.75;2.00;;;18.50;99.90;;;17.96;100.00;96881.25;5046203;28;20044;-70
2022/06/20 02:59:51;;;;;;;10.82;2.55;;;18.50;99.90;;;17.85;100.00;96895.25;5042207;28;20501;-70
2022/06/20 03:02:24;;;;;;;14.13;2.80;;;18.50;99.90;;;17.78;100.00;96894.91;5043552;28;20127;-70
2022/06/20 03:04:52;;;;;;;11.43;2.60;;;18.50;99.90;;;17.76;100.00;96880.25;5037044;28;20289;-69
2022/06/20 03:07:28;;;;;;;13.57;2.78;;;18.40;99.90;;;17.45;100.00;96916.88;5045136;28;20094;-69
2022/06/20 03:10:38;;;;;;;8.45;2.40;;;18.40;99.90;;;17.34;100.00;96946.59;5045716;28;20073;-70
2022/06/20 03:13:07;;;;;;;11.55;2.63;;;18.20;99.90;;;17.54;100.00;96878.56;4982726;28;20571;-70
2022/06/20 03:15:36;;;;;;;13.50;2.92;;;18.10;99.90;;;17.38;100.00;96893.88;5041578;28;20075;-69
2022/06/20 03:18:05;;;;;;;13.13;2.40;;;18.10;99.90;;;17.28;100.00;96899.03;5042001;28;20143;-69
2022/06/20 03:20:35;;;;;;;9.15;2.33;;;18.10;99.90;;;17.26;100.00;96928.00;5045142;28;20087;-69
2022/06/20 03:23:21;;;;;;;12.13;2.72;;;18.00;99.90;;;17.59;100.00;96925.44;5044559;28;20139;-70
2022/06/20 03:25:50;;;;;;;6.20;1.90;;;18.10;99.90;;;17.88;100.00;96913.41;5044332;28;20135;-70
2022/06/20 03:28:21;;;;;;;8.73;2.30;;;18.20;99.90;;;17.96;100.00;96908.31;5048631;28;20495;-70
2022/06/20 03:31:05;;;;;;;8.18;2.67;;;18.30;99.90;;;18.00;100.00;96906.28;5045056;28;20053;-69
2022/06/20 03:33:32;;;;;;;10.93;2.63;;;18.50;99.90;;;18.13;100.00;96917.44;5047031;28;20041;-70
2022/06/20 03:36:21;;;;;;;9.10;2.60;;;18.60;99.90;;;18.17;100.00;96920.63;5044025;28;20076;-69
2022/06/20 03:38:50;;;;;;;9.77;2.47;;;18.50;99.90;;;18.05;100.00;96927.75;5061528;28;20561;-69
2022/06/20 03:41:23;;;;;;;9.55;1.85;;;18.60;99.90;;;18.20;100.00;96923.03;5042992;28;20096;-69
2022/06/20 03:44:07;;;;;;;8.43;2.17;;;18.60;99.90;;;18.22;100.00;96918.44;5036701;28;20496;-70
2022/06/20 03:46:53;;;;;;;6.43;1.92;;;18.70;99.90;;;18.44;100.00;96903.50;5041557;28;20064;-70
2022/06/20 03:49:49;;;;;;;9.02;2.60;;;18.80;99.90;;;18.40;100.00;96910.81;5045494;28;20380;-70
2022/06/20 03:52:27;;;;;;;10.50;2.28;;;18.80;99.90;;;18.24;100.00;96924.41;5041024;28;20052;-70
2022/06/20 03:55:06;;;;;;;11.52;2.72;;;18.70;99.90;;;18.09;100.00;96937.03;5044881;28;20088;-69
2022/06/20 03:58:28;;;;;;;9.25;2.40;;;18.60;99.90;;;18.33;100.00;96930.69;5048459;28;20072;-70
2022/06/20 04:01:05;;;;;;;8.18;2.40;;;18.70;99.90;;;18.46;100.00;96930.50;4983406;28;20073;-69
2022/06/20 04:03:38;;;;;;;10.43;2.38;;;18.80;99.90;;;18.30;100.00;96944.09;5058092;28;20115;-69
2022/06/20 04:06:37;;;;;;;14.63;2.78;;;18.90;99.90;;;18.23;100.00;96950.81;5044376;28;20115;-69
2022/06/20 04:12:12;;;;;;;11.95;2.90;;;18.80;99.90;;;17.84;100.00;96974.16;5050473;28;20486;-69
2022/06/20 04:15:01;;;;;;;14.65;2.65;;;18.70;99.90;;;17.90;100.00;96976.25;5047244;28;20770;-69
2022/06/20 04:20:58;;;;;;;8.48;2.35;;;18.80;99.90;;;18.47;100.00;96972.38;5046128;28;20402;-70
2022/06/20 04:23:41;;;;;;;9.20;2.85;;;18.90;99.90;;;18.32;100.00;96994.72;5042961;28;20041;-69
2022/06/20 04:26:31;;;;;;;11.25;2.78;;;19.00;99.90;;;18.25;100.00;96993.56;5043098;28;20075;-69
2022/06/20 04:29:20;;;;;;;7.18;2.30;;;19.00;99.90;;;18.60;100.00;97004.56;5042745;28;20135;-69
2022/06/20 04:32:13;;;;;;;8.02;2.78;;;19.00;99.90;;;18.83;100.00;97007.06;5044673;28;20144;-69
2022/06/20 04:35:00;;;;;;;;;;;19.20;99.90;;;18.79;100.00;97006.50;5044818;28;20131;-70
2022/06/20 04:37:42;;;;;;;8.85;2.80;;;19.30;99.90;;;18.95;100.00;97023.59;5046421;28;20304;-69
2022/06/20 04:40:19;;;;;;;9.63;2.53;;;19.50;99.90;;;18.99;100.00;97022.38;5042762;28;20132;-70
2022/06/20 04:42:52;;;;;;;10.48;2.72;;;19.50;99.90;;;18.84;100.00;97021.91;5044595;28;20048;-69
2022/06/20 04:45:51;;;;;;;11.48;2.70;;;19.60;99.90;;;18.77;100.00;97020.72;5046283;28;20076;-70
2022/06/20 04:48:22;;;;;;;7.80;1.98;;;19.50;99.90;;;18.67;100.00;97025.06;5045944;28;20045;-69
2022/06/20 04:50:53;;;;;;;9.05;2.60;;;19.40;99.90;;;18.52;100.00;97035.94;5047808;28;20457;-70
2022/06/20 04:53:40;;;;;;;8.07;1.98;;;19.30;99.90;;;18.87;100.00;97042.66;5045069;28;20124;-70
2022/06/20 04:56:13;;;;;;;9.07;3.03;;;19.30;99.90;;;18.67;100.00;97041.69;5039263;28;20095;-69
2022/06/20 04:58:57;;;;;;;11.02;2.28;;;19.30;99.90;;;18.84;100.00;97032.41;5041088;28;20626;-70
2022/06/20 05:01:26;;;;;;;8.93;2.42;;;19.30;99.90;;;18.61;100.00;97042.22;5042846;28;20088;-69
2022/06/20 05:04:07;;;;;;;10.18;2.42;;;19.30;99.90;;;18.80;100.00;97036.25;5046372;28;20128;-69
2022/06/20 05:06:38;;;;;;;13.18;2.90;;;19.30;99.90;;;18.73;100.00;97038.53;5059084;28;20086;-69
2022/06/20 05:09:34;;;;;;;11.13;2.22;;;19.30;99.90;;;18.74;100.00;97027.06;5048687;28;20131;-69
2022/06/20 05:12:15;;;;;;;12.57;2.60;;;19.20;99.90;;;18.58;100.00;97017.00;5046898;28;20096;-70
2022/06/20 05:15:12;;;;;;;10.07;2.28;;;19.10;99.90;;;19.02;100.00;97025.59;5052026;28;20189;-69
2022/06/20 05:17:41;;;;;;;11.32;2.17;;;19.30;99.90;;;18.88;100.00;97038.22;5052342;28;20439;-69
2022/06/20 05:20:29;;;;;;;11.25;2.70;;;19.30;99.90;;;18.77;100.00;97066.28;5048441;28;20599;-70
2022/06/20 05:23:26;;;;;;;10.15;2.38;;;19.40;99.90;;;18.35;100.00;97166.06;5046966;28;20096;-70
2022/06/20 05:25:55;;;;;;;10.20;2.20;;;19.20;99.90;;;18.11;100.00;97255.56;5039078;28;20531;-70
2022/06/20 05:28:24;;;;;;;28.50;4.00;;;19.00;99.90;;;17.56;100.00;97213.38;5044944;28;20047;-70
2022/06/20 05:30:51;;;;;;;28.38;4.53;;;18.70;99.90;;;16.81;100.00;97084.50;5045145;28;20072;-70
2022/06/20 05:33:30;;;;;;;15.82;4.75;;;18.10;99.90;;;16.66;100.00;97142.31;5046987;28;20045;-70
2022/06/20 05:36:31;;;;;;;12.95;4.65;;;17.60;99.90;;;16.77;100.00;97153.81;5048964;28;20103;-69
2022/06/20 05:39:09;;;;;;;11.25;4.13;;;17.20;99.90;;;16.85;100.00;97138.34;5047108;28;20052;-69
2022/06/20 05:41:37;;;;;;;14.38;3.97;;;17.20;99.90;;;16.99;100.00;97150.44;5047726;28;20072;-69
2022/06/20 05:44:07;;;;;;;11.98;3.72;;;17.30;99.90;;;17.16;100.00;97186.72;5049612;28;20661;-70
2022/06/20 05:47:04;;;;;;;13.68;4.72;;;17.40;99.90;;;17.16;100.00;97210.31;5048349;28;20060;-69
2022/06/20 05:49:39;;;;;;;16.67;5.90;;;17.50;99.90;;;17.24;100.00;97218.44;5044486;28;20128;-70
2022/06/20 05:52:08;;;;;;;25.52;8.32;;;17.60;99.90;;;16.90;100.00;97209.63;5041821;28;20206;-69
2022/06/20 05:54:43;;;;;;;17.58;5.55;;;17.50;99.90;;;16.95;100.00;97218.00;5046938;28;20057;-70
2022/06/20 05:57:16;;;;;;;18.42;7.43;;;17.40;99.90;;;16.91;100.00;97204.28;5046618;28;20048;-69
2022/06/20 05:59:49;;;;;;;;;;;17.40;99.90;;;16.79;100.00;97199.94;5048851;28;20041;-69
2022/06/20 06:02:33;;;;;;;;;;;17.30;99.90;;;16.96;100.00;97203.09;5047897;28;19955;-69
2022/06/20 06:05:29;;;;;;;20.15;6.57;;;17.30;99.90;;;17.31;100.00;97219.66;5045119;28;19924;-69
2022/06/20 06:08:11;;;;;;;12.25;4.55;;;17.60;99.90;;;17.66;100.00;97216.13;5045221;28;20504;-69
2022/06/20 06:11:15;;;;;;;16.63;6.25;;;17.90;99.90;;;17.79;100.00;97216.03;5051214;28;20053;-70
2022/06/20 06:14:15;;;;;;;18.98;6.25;;;18.00;99.90;;;17.77;100.00;97207.44;5047984;28;20049;-70
2022/06/20 06:16:54;;;;;;;12.30;3.65;;;18.10;99.90;;;17.95;100.00;97200.75;5050230;28;20080;-69
2022/06/20 06:19:53;;;;;;;8.13;2.90;;;18.20;99.90;;;18.28;100.00;97191.16;5048609;28;20045;-69
2022/06/20 06:22:26;;;;;;;9.52;3.45;;;18.50;99.90;;;18.29;100.00;97192.84;5049427;28;20118;-70
2022/06/20 06:24:59;;;;;;;10.57;4.10;;;18.80;99.90;;;18.62;100.00;97188.44;5047930;28;20045;-69
2022/06/20 06:27:36;;;;;;;13.57;4.60;;;18.90;99.90;;;18.45;100.00;97196.84;5044006;28;20048;-70
2022/06/20 06:30:49;;;;;;;11.35;3.97;;;18.90;99.90;;;18.38;100.00;97181.59;5051495;28;20066;-69
2022/06/20 06:33:41;;;;;;;14.63;4.22;;;18.90;99.90;;;18.28;100.00;97158.81;5043660;28;20056;-69
2022/06/20 06:36:20;;;;;;;11.37;3.10;;;18.80;99.90;;;18.29;100.00;97165.72;5049904;28;20132;-70
2022/06/20 06:39:04;;;;;;;13.65;2.90;;;18.90;99.90;;;18.14;100.00;97191.44;5052996;28;20467;-70
2022/06/20 06:41:37;;;;;;;7.35;2.95;;;18.80;99.90;;;18.28;100.00;97170.13;5048482;28;20489;-69
2022/06/20 06:44:33;;;;;;;9.38;3.20;;;18.80;99.90;;;18.60;100.00;97175.41;5048232;28;20168;-70
2022/06/20 06:47:02;;;;;;;12.50;3.60;;;18.90;99.90;;;18.56;100.00;97178.41;5046764;28;20059;-69
2022/06/20 06:49:43;;;;;;;13.75;5.22;;;19.00;99.90;;;18.25;100.00;97182.69;5048494;28;20059;-70
2022/06/20 06:52:16;;;;;;;9.82;4.30;;;19.10;99.90;;;18.33;100.00;97193.41;5044278;28;20083;-70
2022/06/20 06:55:28;;;;;;;14.13;5.13;;;19.10;99.90;;;18.10;100.00;97201.34;5047627;28;20086;-69
2022/06/20 06:58:14;;;;;;;13.60;5.45;;;19.10;99.90;;;17.93;100.00;97220.22;5002147;28;20190;-69
2022/06/20 07:00:51;;;;;;;15.88;6.57;;;18.90;99.90;;;17.80;100.00;97238.69;5038729;28;20592;-70
2022/06/20 07:03:26;;;;;;;13.90;5.00;;;18.80;99.90;;;17.95;100.00;97228.81;5048878;28;20463;-69
2022/06/20 07:06:01;;;;;;;14.15;5.32;;;18.80;99.90;;;18.18;100.00;97217.34;5042610;28;20056;-70
2022/06/20 07:09:21;;;;;;;15.35;4.80;;;18.80;99.90;;;18.67;100.00;97217.81;5061172;28;20049;-69
2022/06/20 07:12:34;;;;;;;12.73;4.78;;;19.10;99.90;;;18.35;100.00;97217.78;5047989;28;20099;-69
2022/06/20 07:15:32;;;;;;;13.90;5.37;;;19.10;99.90;;;18.34;100.00;97227.47;5038013;28;20149;-69
2022/06/20 07:18:02;;;;;;;9.60;5.07;;;19.10;99.90;;;18.23;100.00;97224.03;5035175;28;20057;-69
2022/06/20 07:20:36;;;;;;;14.50;4.68;;;19.10;99.90;;;18.24;100.00;97218.63;5042514;28;20140;-69
2022/06/20 07:23:09;;;;;;;16.98;5.82;;;19.10;99.90;;;18.03;100.00;97222.97;5045418;28;20102;-70
2022/06/20 07:25:42;;;;;;;17.02;5.03;;;19.10;99.90;;;18.39;100.00;97225.28;5042550;28;20144;-69
2022/06/20 07:28:40;;;;;;;13.43;5.75;;;19.10;99.90;;;18.50;100.00;97221.81;5053501;28;20048;-69
2022/06/20 07:31:28;;;;;;;12.88;4.95;;;19.20;99.90;;;18.53;100.00;97212.84;5044282;28;20081;-70
2022/06/20 07:34:28;;;;;;;15.75;5.32;;;19.30;99.90;;;18.74;100.00;97205.81;5040697;28;20179;-69
2022/06/20 07:37:12;;;;;;;16.02;4.78;;;19.60;99.90;;;19.27;100.00;97210.25;5042005;28;20045;-69
2022/06/20 07:39:42;;;;;;;11.35;4.00;;;19.90;99.90;;;19.93;100.00;97198.59;5043137;28;20076;-70
2022/06/20 07:42:33;;;;;;;11.95;3.90;;;;;;;20.30;100.00;97190.09;5042401;28;20078;-69
2022/06/20 07:45:41;;;;;;;11.48;4.18;;;20.90;99.90;;;19.67;100.00;97167.41;5039153;28;20076;-70
2022/06/20 07:48:30;;;;;;;9.88;3.80;;;21.00;99.90;;;20.45;100.00;97170.28;5042263;28;20124;-69
2022/06/20 07:51:23;;;;;;;11.85;3.35;;;21.10;99.90;;;20.60;100.00;97163.69;5042117;28;20568;-70
2022/06/20 07:53:54;;;;;;;;;;;21.40;99.90;;;21.38;100.00;97171.50;5038054;28;20041;-69
2022/06/20 07:56:29;;;;;;;13.05;3.65;;;22.00;99.90;;;21.46;100.00;97161.09;5039042;28;19960;-69
2022/06/20 07:59:07;;;;;;;8.52;3.55;;;22.30;99.90;;;21.36;100.00;97152.34;5042193;28;20054;-70
2022/06/20 08:01:51;;;;;;;11.63;3.20;;;;;;;22.01;100.00;97154.19;5044574;28;20094;-69
2022/06/20 08:04:31;;;;;;;8.05;2.95;;;22.70;99.90;;;22.10;100.00;97135.66;5044234;28;20055;-69
2022/06/20 08:07:13;;;;;;;8.10;2.20;;;23.00;99.90;;;22.67;100.00;97122.19;5038977;28;20572;-69
2022/06/20 08:10:12;;;;;;;9.27;2.65;;;23.20;99.90;;;23.24;100.00;97119.19;5041512;28;20149;-70
2022/06/20 08:13:05;;;;;;;9.52;2.83;;;23.70;99.90;;;23.29;100.00;97121.34;5044433;28;20048;-70
2022/06/20 08:15:58;;;;;;;9.50;2.47;;;24.10;99.90;;;23.12;100.00;97115.09;5048095;28;20048;-69
2022/06/20 08:18:25;;;;;;;10.52;3.25;;;24.20;99.90;;;22.68;100.00;97117.72;5042938;28;20150;-70
2022/06/20 08:21:05;;;;;;;10.07;2.90;;;24.00;99.90;;;22.46;100.00;97132.22;5041856;28;20314;-70
2022/06/20 08:23:46;;;;;;;8.45;2.58;;;23.80;99.90;;;22.38;100.00;97150.69;5043045;28;20107;-70
2022/06/20 08:26:31;;;;;;;10.30;2.33;;;23.60;99.90;;;23.15;100.00;97152.69;5047603;28;20127;-70
2022/06/20 08:29:06;;;;;;;7.57;2.42;;;23.60;99.90;;;22.64;100.00;97154.22;5039245;28;20145;-69
2022/06/20 08:31:37;;;;;;;8.05;2.30;;;23.60;99.90;;;22.36;100.00;97176.44;5024696;28;20060;-69
2022/06/20 08:34:32;;;;;;;7.85;2.15;;;23.50;99.90;;;21.88;100.00;97204.75;5042512;28;20053;-69
2022/06/20 08:37:41;;;;;;;12.00;2.53;;;23.30;99.90;;;21.90;100.00;97227.41;5039800;28;20152;-69
2022/06/20 08:40:33;;;;;;;8.23;2.72;;;23.10;99.90;;;21.90;100.00;97248.53;5041827;28;20047;-70
2022/06/20 08:43:30;;;;;;;5.88;2.55;;;22.80;99.90;;;21.78;100.00;97252.34;5042519;28;20126;-70
2022/06/20 08:46:04;;;;;;;13.70;3.10;;;22.50;99.90;;;21.48;100.00;97261.28;5039486;28;20139;-70
2022/06/20 08:49:12;;;;;;;11.93;2.40;;;22.50;99.90;;;21.85;100.00;97263.16;5043601;28;20091;-69
2022/06/20 08:52:25;;;;;;;10.63;2.95;;;22.50;99.90;;;21.50;100.00;97272.53;5043154;28;20080;-70
2022/06/20 08:55:14;;;;;;;10.38;3.65;;;22.50;99.90;;;21.42;100.00;97267.16;5045381;28;20048;-70
2022/06/20 08:58:19;;;;;;;10.13;3.35;;;22.30;99.90;;;21.62;100.00;97275.84;5048660;28;20076;-69
2022/06/20 09:01:21;;;;;;;12.52;3.72;;;22.70;99.90;;;22.12;100.00;97270.28;5046154;28;20139;-69
2022/06/20 09:04:04;;;;;;;7.72;2.88;;;22.90;99.90;;;22.67;100.00;97266.84;5045482;28;20099;-69
2022/06/20 09:07:08;;;;;;;7.45;2.85;;;23.20;99.90;;;23.12;100.00;97266.00;5045722;28;20110;-69
2022/06/20 09:09:53;;;;;;;11.07;2.63;;;23.50;99.90;;;23.24;100.00;97262.16;5045265;28;20052;-69
2022/06/20 09:12:38;;;;;;;8.77;2.78;;;23.90;99.90;;;22.17;100.00;97276.00;5045246;28;20057;-69
2022/06/20 09:15:46;;;;;;;9.55;2.80;;;24.00;99.90;;;21.99;100.00;97267.16;5042363;28;20131;-69
2022/06/20 09:18:51;;;;;;;9.15;2.95;;;23.80;99.90;;;22.33;100.00;97268.28;5041667;28;20048;-70
2022/06/20 09:21:37;;;;;;;7.78;2.53;;;23.60;99.90;;;22.47;100.00;97276.72;5042753;28;20047;-69
2022/06/20 09:24:22;;;;;;;9.13;3.15;;;23.50;99.90;;;21.98;100.00;97287.44;5044713;28;20048;-69
2022/06/20 09:26:57;;;;;;;10.10;3.20;;;23.40;99.90;;;22.17;100.00;97294.50;5041252;28;20080;-69
2022/06/20 09:29:42;;;;;;;10.05;2.97;;;23.10;99.90;;;22.20;100.00;97294.19;5046859;28;20526;-70
2022/06/20 09:32:37;;;;;;;8.65;2.67;;;23.10;99.90;;;22.26;100.00;97298.94;5047672;28;20094;-70
2022/06/20 09:35:41;;;;;;;9.93;2.22;;;23.20;99.90;;;22.26;100.00;97290.16;5043766;28;20084;-70
2022/06/20 09:39:24;;;;;;;8.77;2.10;;;23.20;99.90;;;22.17;100.00;97293.63;5044763;28;20052;-69
2022/06/20 09:42:05;;;;;;;5.90;2.07;;;23.10;99.90;;;22.39;100.00;97293.31;5041835;28;20065;-69
2022/06/20 09:45:03;;;;;;;10.43;2.08;;;23.20;99.90;;;22.44;100.00;97279.66;5026470;28;20137;-69
2022/06/20 09:47:46;;;;;;;5.68;1.63;;;23.30;99.90;;;22.45;100.00;97284.78;5042800;28;20064;-70
2022/06/20 09:50:36;;;;;;;7.20;1.80;;;23.20;99.90;;;22.79;100.00;97283.38;5043192;28;20056;-70
2022/06/20 09:53:17;;;;;;;6.57;2.15;;;23.10;99.90;;;22.41;100.00;97283.41;5041715;28;20556;-69
2022/06/20 09:56:02;;;;;;;6.97;1.80;;;23.30;99.90;;;22.53;100.00;97284.91;5046491;28;20080;-70
2022/06/20 09:59:18;;;;;;;6.15;1.70;;;23.40;99.90;;;22.48;100.00;97283.66;5045605;28;20731;-70
2022/06/20 10:01:52;;;;;;;6.38;1.38;;;23.40;99.90;;;22.60;100.00;97279.81;5042440;28;20137;-70
2022/06/20 10:04:50;;;;;;;7.32;1.83;;;23.40;99.90;;;22.73;100.00;97279.47;5039733;28;20091;-69
2022/06/20 10:07:47;;;;;;;4.82;1.55;;;23.60;99.90;;;22.76;100.00;97281.81;5046411;28;20053;-70
2022/06/20 10:10:27;;;;;;;5.90;1.58;;;23.60;99.90;;;22.34;100.00;97269.13;5045204;28;20079;-70
2022/06/20 10:13:33;;;;;;;6.93;1.73;;;23.30;99.90;;;22.43;100.00;97268.25;5041014;28;20053;-69
2022/06/20 10:16:08;;;;;;;7.88;2.08;;;23.20;99.90;;;21.93;100.00;97281.78;5038521;28;20136;-70
2022/06/20 10:19:04;;;;;;;6.50;1.48;;;23.10;99.90;;;22.10;100.00;97285.47;5043927;28;20157;-70
2022/06/20 10:22:00;;;;;;;5.15;1.80;;;22.90;99.90;;;21.56;100.00;97287.84;5043551;28;20072;-70
2022/06/20 10:24:58;;;;;;;7.13;2.13;;;22.60;99.90;;;20.55;100.00;97302.97;5045101;28;20053;-69
2022/06/20 10:28:15;;;;;;;8.07;2.60;;;22.10;99.90;;;20.51;100.00;97319.19;5046605;28;20060;-70
2022/06/20 10:31:12;;;;;;;5.30;2.00;;;21.70;99.90;;;20.59;100.00;97317.56;5043665;28;20788;-70
2022/06/20 10:33:51;;;;;;;3.30;1.83;;;21.60;99.90;;;20.90;100.00;97333.34;5046442;28;20045;-69
2022/06/20 10:36:45;;;;;;;8.13;2.22;;;21.70;99.90;;;20.95;100.00;97338.22;5041692;28;20128;-70
2022/06/20 10:39:33;;;;;;;5.45;2.55;;;21.80;99.90;;;20.68;100.00;97339.66;5045450;28;20472;-63
2022/06/20 10:42:30;;;;;;;5.95;2.05;;;21.80;99.90;;;20.81;100.00;97336.81;5044783;28;20160;-64
2022/06/20 10:45:22;;;;;;;5.93;1.98;;;21.80;99.90;;;21.14;100.00;97335.59;5044524;28;20049;-63
2022/06/20 10:48:26;;;;;;;6.57;1.80;;;21.90;99.90;;;21.84;100.00;97332.81;5046029;28;20736;-64
2022/06/20 10:51:17;;;;;;;5.65;1.83;;;22.50;99.90;;;21.30;100.00;97340.31;5045038;28;20051;-64
2022/06/20 10:54:12;;;;;;;6.68;1.65;;;22.90;99.90;;;21.55;100.00;97340.78;5044377;28;20103;-64
2022/06/20 10:57:10;;;;;;;4.28;1.77;;;22.60;99.90;;;20.61;100.00;97354.38;5041743;28;20145;-64
2022/06/20 11:00:22;;;;;;;4.38;1.80;;;22.20;99.90;;;20.60;100.00;97357.97;5044488;28;20132;-64
2022/06/20 11:03:17;;;;;;;4.93;1.73;;;21.70;99.90;;;20.24;100.00;97371.50;5047230;28;20076;-63
2022/06/20 11:06:08;;;;;;;4.82;1.63;;;21.30;99.90;;;19.79;100.00;97392.84;5043558;28;20104;-63
2022/06/20 11:09:05;;;;;;;3.35;1.98;;;21.10;99.90;;;19.91;100.00;97393.66;5042680;28;20061;-64
2022/06/20 11:11:47;;;;;;;3.13;1.65;;;20.90;99.90;;;19.81;100.00;97395.38;5037535;28;20498;-64
2022/06/20 11:14:42;;;;;;;5.38;2.08;;;20.70;99.90;;;19.36;100.00;97401.66;5038552;28;20081;-63
2022/06/20 11:17:45;;;;;;;3.85;2.10;;;20.30;99.90;;;19.27;100.00;97402.34;5046616;28;20120;-63
2022/06/20 11:20:17;;;;;;;3.20;2.20;;;20.40;99.90;;;18.85;100.00;97428.50;5042570;28;20049;-63
2022/06/20 11:22:52;;;;;;;3.78;2.22;;;20.00;99.90;;;18.79;100.00;97429.84;5045245;28;20045;-63
2022/06/20 11:25:42;;;;;;;5.22;2.22;;;20.00;99.90;;;18.67;100.00;97432.56;5040916;28;20036;-64